createdAt,value
2022-08-25T00:01:27.511Z,3.00
2022-08-25T00:03:58.458Z,2.50
2022-08-25T00:06:25.561Z,2.80
2022-08-25T00:08:52.807Z,3.47
2022-08-25T00:11:24.060Z,2.80
2022-08-25T00:13:55.772Z,2.90
2022-08-25T00:16:23.294Z,3.07
2022-08-25T00:18:53.439Z,3.70
2022-08-25T00:21:21.429Z,2.97
2022-08-25T00:23:49.685Z,3.23
2022-08-25T00:26:17.577Z,2.50
2022-08-25T00:28:45.016Z,3.37
2022-08-25T00:31:18.757Z,2.70
2022-08-25T00:33:47.524Z,3.30
2022-08-25T00:36:15.796Z,3.10
2022-08-25T00:38:44.890Z,3.00
2022-08-25T00:41:16.073Z,3.40
2022-08-25T00:44:10.996Z,3.00
2022-08-25T00:46:43.086Z,3.77
2022-08-25T00:49:29.657Z,3.53
2022-08-25T00:52:07.812Z,3.77
2022-08-25T00:54:37.398Z,4.03
2022-08-25T00:57:06.175Z,3.37
2022-08-25T00:59:33.478Z,3.40
2022-08-25T01:02:01.904Z,3.40
2022-08-25T01:04:29.757Z,3.43
2022-08-25T01:06:58.650Z,4.20
2022-08-25T01:09:25.882Z,3.40
2022-08-25T01:11:53.141Z,4.10
2022-08-25T01:14:21.688Z,3.17
2022-08-25T01:16:51.059Z,3.80
2022-08-25T01:19:21.270Z,4.43
2022-08-25T01:21:50.649Z,3.97
2022-08-25T01:24:37.619Z,3.63
2022-08-25T01:27:06.656Z,4.30
2022-08-25T01:29:34.002Z,3.77
2022-08-25T01:32:07.990Z,4.30
2022-08-25T01:34:38.214Z,4.27
2022-08-25T01:37:05.933Z,4.10
2022-08-25T01:39:34.108Z,3.43
2022-08-25T01:42:13.267Z,4.33
2022-08-25T01:44:43.703Z,4.23
2022-08-25T01:47:11.413Z,4.23
2022-08-25T01:49:38.457Z,4.47
2022-08-25T01:52:27.751Z,4.17
2022-08-25T01:54:54.923Z,4.23
2022-08-25T01:57:22.377Z,4.80
2022-08-25T01:59:49.434Z,4.67
2022-08-25T02:02:18.332Z,6.17
2022-08-25T02:04:45.673Z,4.57
2022-08-25T02:07:12.692Z,4.00
2022-08-25T02:09:39.930Z,5.27
2022-08-25T02:12:09.334Z,4.87
2022-08-25T02:14:36.857Z,5.10
2022-08-25T02:17:06.414Z,4.30
2022-08-25T02:19:33.901Z,5.10
2022-08-25T02:22:01.170Z,4.70
2022-08-25T02:24:29.045Z,4.50
2022-08-25T02:26:56.425Z,5.60
2022-08-25T02:29:23.834Z,4.53
2022-08-25T02:31:50.941Z,4.70
2022-08-25T02:34:17.903Z,5.13
2022-08-25T02:36:44.950Z,5.37
2022-08-25T02:39:13.033Z,5.27
2022-08-25T02:41:40.231Z,4.80
2022-08-25T02:44:08.455Z,5.50
2022-08-25T02:46:37.385Z,5.63
2022-08-25T02:49:05.898Z,4.93
2022-08-25T02:51:33.657Z,5.20
2022-08-25T02:54:02.526Z,4.70
2022-08-25T02:56:30.949Z,5.67
2022-08-25T02:58:58.689Z,5.80
2022-08-25T03:01:28.777Z,5.33
2022-08-25T03:03:57.441Z,5.37
2022-08-25T03:06:25.244Z,5.30
2022-08-25T03:08:53.195Z,5.43
2022-08-25T03:11:20.703Z,5.30
2022-08-25T03:13:50.984Z,6.20
2022-08-25T03:16:18.854Z,5.80
2022-08-25T03:18:46.010Z,5.70
2022-08-25T03:21:13.465Z,5.03
2022-08-25T03:23:43.486Z,5.33
2022-08-25T03:26:29.100Z,5.43
2022-08-25T03:28:56.309Z,5.20
2022-08-25T03:31:26.104Z,5.93
2022-08-25T03:33:54.362Z,5.23
2022-08-25T03:36:21.606Z,6.23
2022-08-25T03:38:48.685Z,6.27
2022-08-25T03:41:22.911Z,5.73
2022-08-25T03:43:50.885Z,5.77
2022-08-25T03:46:19.374Z,5.20
2022-08-25T03:48:46.841Z,5.93
2022-08-25T03:51:23.323Z,6.40
2022-08-25T03:53:50.904Z,6.60
2022-08-25T03:56:18.345Z,5.53
2022-08-25T03:58:45.805Z,6.40
2022-08-25T04:01:12.832Z,5.37
2022-08-25T04:03:40.072Z,5.67
2022-08-25T04:06:07.923Z,6.50
2022-08-25T04:08:35.964Z,6.23
2022-08-25T04:11:23.393Z,5.67
2022-08-25T04:13:51.964Z,5.77
2022-08-25T04:16:20.271Z,6.10
2022-08-25T04:18:48.089Z,5.87
2022-08-25T04:21:15.893Z,7.50
2022-08-25T04:23:45.173Z,7.37
2022-08-25T04:26:19.295Z,6.37
2022-08-25T04:28:46.900Z,7.27
2022-08-25T04:31:15.595Z,7.03
2022-08-25T04:33:42.840Z,6.37
2022-08-25T04:36:14.269Z,7.60
2022-08-25T04:38:43.425Z,6.67
2022-08-25T04:41:13.129Z,6.73
2022-08-25T04:43:41.621Z,6.43
2022-08-25T04:46:12.535Z,8.00
2022-08-25T04:48:40.914Z,6.70
2022-08-25T04:51:10.689Z,7.13
2022-08-25T04:53:38.569Z,8.05
2022-08-25T04:56:10.689Z,7.70
2022-08-25T04:58:37.982Z,6.20
2022-08-25T05:01:07.337Z,6.60
2022-08-25T05:03:35.053Z,7.37
2022-08-25T05:06:03.070Z,6.63
2022-08-25T05:08:30.092Z,7.47
2022-08-25T05:10:57.510Z,8.23
2022-08-25T05:13:26.468Z,9.45
2022-08-25T05:15:58.349Z,7.43
2022-08-25T05:18:30.070Z,7.50
2022-08-25T05:21:02.061Z,8.15
2022-08-25T05:23:29.256Z,7.20
2022-08-25T05:25:56.590Z,8.05
2022-08-25T05:28:25.232Z,7.75
2022-08-25T05:30:57.314Z,6.70
2022-08-25T05:33:24.264Z,7.00
2022-08-25T05:35:51.879Z,7.32
2022-08-25T05:38:18.985Z,8.40
2022-08-25T05:40:46.176Z,7.82
2022-08-25T05:43:14.801Z,7.53
2022-08-25T05:45:42.209Z,9.65
2022-08-25T05:48:09.137Z,7.13
2022-08-25T05:50:36.087Z,7.65
2022-08-25T05:53:03.260Z,7.22
2022-08-25T05:55:30.208Z,7.63
2022-08-25T05:57:57.129Z,7.38
2022-08-25T06:00:24.256Z,7.53
2022-08-25T06:02:51.243Z,7.40
2022-08-25T06:05:21.565Z,7.00
2022-08-25T06:07:51.440Z,8.25
2022-08-25T06:10:20.179Z,8.15
2022-08-25T06:12:47.613Z,7.85
2022-08-25T06:15:19.076Z,7.13
2022-08-25T06:17:47.042Z,7.20
2022-08-25T06:20:20.278Z,8.02
2022-08-25T06:22:54.378Z,7.00
2022-08-25T06:25:41.385Z,7.40
2022-08-25T06:28:43.540Z,6.95
2022-08-25T06:31:25.413Z,9.27
2022-08-25T06:33:52.925Z,7.43
2022-08-25T06:36:40.595Z,7.00
2022-08-25T06:39:42.423Z,10.27
2022-08-25T06:42:09.956Z,7.07
2022-08-25T06:44:56.828Z,6.90
2022-08-25T06:47:38.691Z,6.63
2022-08-25T06:50:41.283Z,7.53
2022-08-25T06:53:08.981Z,7.18
2022-08-25T06:55:36.503Z,7.90
2022-08-25T06:58:05.545Z,7.45
2022-08-25T07:00:57.385Z,7.75
2022-08-25T07:06:11.413Z,6.97
2022-08-25T07:08:38.592Z,6.90
2022-08-25T07:11:07.639Z,7.82
2022-08-25T07:13:44.999Z,6.82
2022-08-25T07:16:12.155Z,6.38
2022-08-25T07:18:39.293Z,7.32
2022-08-25T07:21:08.979Z,6.50
2022-08-25T07:23:36.917Z,7.40
2022-08-25T07:26:35.741Z,6.90
2022-08-25T07:29:03.362Z,17.85
2022-08-25T07:31:30.482Z,19.02
2022-08-25T07:34:16.682Z,7.95
2022-08-25T07:36:44.610Z,6.90
2022-08-25T07:39:11.960Z,7.20
2022-08-25T07:41:41.713Z,5.85
2022-08-25T07:44:11.134Z,6.65
2022-08-25T07:46:38.625Z,7.32
2022-08-25T07:49:09.189Z,6.93
2022-08-25T07:52:03.975Z,7.15
2022-08-25T07:54:34.535Z,6.75
2022-08-25T07:57:04.071Z,7.00
2022-08-25T07:59:39.261Z,7.35
2022-08-25T08:02:16.007Z,7.43
2022-08-25T08:04:50.178Z,6.85
2022-08-25T08:07:42.102Z,6.32
2022-08-25T08:10:53.465Z,6.68
2022-08-25T08:13:02.207Z,6.63
2022-08-25T08:15:30.325Z,6.53
2022-08-25T08:18:00.639Z,16.48
2022-08-25T08:20:28.921Z,17.35
2022-08-25T08:22:56.276Z,7.28
2022-08-25T08:25:27.385Z,6.15
2022-08-25T08:27:55.970Z,6.10
2022-08-25T08:30:26.451Z,5.30
2022-08-25T08:33:11.685Z,5.43
2022-08-25T08:35:41.061Z,6.25
2022-08-25T08:38:14.772Z,5.78
2022-08-25T08:41:16.010Z,6.22
2022-08-25T08:43:44.621Z,5.45
2022-08-25T08:46:11.911Z,5.40
2022-08-25T08:48:48.798Z,7.00
2022-08-25T08:51:25.257Z,8.90
2022-08-25T08:54:15.551Z,17.02
2022-08-25T08:56:47.981Z,6.65
2022-08-25T08:59:30.326Z,5.68
2022-08-25T09:02:00.391Z,6.32
2022-08-25T09:04:39.947Z,5.15
2022-08-25T09:07:14.890Z,5.53
2022-08-25T09:09:44.111Z,5.80
2022-08-25T09:12:20.125Z,5.60
2022-08-25T09:14:56.277Z,6.00
2022-08-25T09:18:01.297Z,6.20
2022-08-25T09:20:38.918Z,9.65
2022-08-25T09:23:33.805Z,6.00
2022-08-25T09:26:36.359Z,6.25
2022-08-25T09:29:16.518Z,5.72
2022-08-25T09:31:44.827Z,5.72
2022-08-25T09:34:16.507Z,5.03
2022-08-25T09:36:45.433Z,5.10
2022-08-25T09:39:12.334Z,5.43
2022-08-25T09:41:46.264Z,5.47
2022-08-25T09:44:37.149Z,5.53
2022-08-25T09:47:14.709Z,4.65
2022-08-25T09:50:05.241Z,5.30
2022-08-25T09:52:37.507Z,5.43
2022-08-25T09:55:13.726Z,4.50
2022-08-25T09:57:49.091Z,3.67
2022-08-25T10:00:33.556Z,3.80
2022-08-25T10:03:22.834Z,3.72
2022-08-25T10:05:56.486Z,3.42
2022-08-25T10:09:02.008Z,3.17
2022-08-25T10:11:40.337Z,4.05
2022-08-25T10:14:08.175Z,4.22
2022-08-25T10:16:36.464Z,4.43
2022-08-25T10:19:10.006Z,4.80
2022-08-25T10:21:39.631Z,4.57
2022-08-25T10:24:11.965Z,4.32
2022-08-25T10:27:00.094Z,4.05
2022-08-25T10:29:42.033Z,4.28
2022-08-25T10:32:20.689Z,3.75
2022-08-25T10:35:22.967Z,3.58
2022-08-25T10:38:21.955Z,4.10
2022-08-25T10:41:19.824Z,4.20
2022-08-25T10:44:06.852Z,4.15
2022-08-25T10:46:53.433Z,3.38
2022-08-25T10:49:43.905Z,4.25
2022-08-25T10:52:20.545Z,3.72
2022-08-25T10:55:27.580Z,4.00
2022-08-25T10:58:47.889Z,3.72
2022-08-25T11:01:53.391Z,3.72
2022-08-25T11:04:48.008Z,3.20
2022-08-25T11:07:40.876Z,3.35
2022-08-25T11:10:44.188Z,3.28
2022-08-25T11:13:17.849Z,3.58
2022-08-25T11:16:15.565Z,3.22
2022-08-25T11:19:06.611Z,3.40
2022-08-25T11:21:47.100Z,3.20
2022-08-25T11:25:11.731Z,3.42
2022-08-25T11:27:57.590Z,3.30
2022-08-25T11:30:44.690Z,3.25
2022-08-25T11:33:31.145Z,3.05
2022-08-25T11:36:18.102Z,3.03
2022-08-25T11:39:22.118Z,3.10
2022-08-25T11:41:49.188Z,4.10
2022-08-25T11:44:51.845Z,3.10
2022-08-25T11:47:44.641Z,2.75
2022-08-25T11:50:57.974Z,2.85
2022-08-25T11:54:08.353Z,3.53
2022-08-25T11:56:57.126Z,2.97
2022-08-25T12:00:03.003Z,3.10
2022-08-25T12:02:51.245Z,2.65
2022-08-25T12:06:24.892Z,2.97
2022-08-25T12:09:07.998Z,3.00
2022-08-25T12:11:44.317Z,2.95
2022-08-25T12:14:31.172Z,3.00
2022-08-25T12:17:39.588Z,2.80
2022-08-25T12:20:53.559Z,3.15
2022-08-25T12:24:05.708Z,3.03
2022-08-25T12:26:46.014Z,2.92
2022-08-25T12:29:46.219Z,2.75
2022-08-25T12:32:44.360Z,2.95
2022-08-25T12:35:29.545Z,2.72
2022-08-25T12:38:51.794Z,2.95
2022-08-25T12:41:54.361Z,3.00
2022-08-25T12:44:34.864Z,3.33
2022-08-25T12:47:28.218Z,3.00
2022-08-25T12:50:36.423Z,3.50
2022-08-25T12:53:32.405Z,2.83
2022-08-25T12:56:23.942Z,2.90
2022-08-25T12:59:03.314Z,3.03
2022-08-25T13:01:55.099Z,2.90
2022-08-25T13:04:23.314Z,3.03
2022-08-25T13:07:04.796Z,3.10
2022-08-25T13:09:49.274Z,2.75
2022-08-25T13:12:38.008Z,2.72
2022-08-25T13:15:05.583Z,3.05
2022-08-25T13:17:35.889Z,2.95
2022-08-25T13:20:29.170Z,2.88
2022-08-25T13:22:59.892Z,3.22
2022-08-25T13:25:33.138Z,3.20
2022-08-25T13:28:04.908Z,3.00
2022-08-25T13:30:37.109Z,3.15
2022-08-25T13:33:22.292Z,2.60
2022-08-25T13:36:12.029Z,3.00
2022-08-25T13:38:39.657Z,2.47
2022-08-25T13:41:09.898Z,3.15
2022-08-25T13:43:38.956Z,2.70
2022-08-25T13:46:06.665Z,3.25
2022-08-25T13:48:49.789Z,2.75
2022-08-25T13:51:22.453Z,2.88
2022-08-25T13:53:56.660Z,3.25
2022-08-25T13:56:39.948Z,3.08
2022-08-25T13:59:26.764Z,3.22
2022-08-25T14:01:55.750Z,2.67
2022-08-25T14:04:27.644Z,2.72
2022-08-25T14:07:08.873Z,3.08
2022-08-25T14:09:45.438Z,2.78
2022-08-25T14:12:46.560Z,2.90
2022-08-25T14:15:22.538Z,3.10
2022-08-25T14:18:14.218Z,2.65
2022-08-25T14:20:49.626Z,3.03
2022-08-25T14:23:21.999Z,2.80
2022-08-25T14:25:54.038Z,2.65
2022-08-25T14:28:26.774Z,2.80
2022-08-25T14:30:58.554Z,2.78
2022-08-25T14:33:32.871Z,2.53
2022-08-25T14:36:02.786Z,3.30
2022-08-25T14:38:29.963Z,2.67
2022-08-25T14:40:59.225Z,2.90
2022-08-25T14:43:32.016Z,2.70
2022-08-25T14:46:05.957Z,2.70
2022-08-25T14:48:40.548Z,2.45
2022-08-25T14:51:11.892Z,2.80
2022-08-25T14:53:39.508Z,2.85
2022-08-25T14:56:09.227Z,2.55
2022-08-25T14:58:48.554Z,2.58
2022-08-25T15:01:29.551Z,2.78
2022-08-25T15:04:03.514Z,2.75
2022-08-25T15:06:31.254Z,2.40
2022-08-25T15:09:13.636Z,2.92
2022-08-25T15:11:47.591Z,2.45
2022-08-25T15:14:29.033Z,2.55
2022-08-25T15:17:03.850Z,2.60
2022-08-25T15:19:31.279Z,2.53
2022-08-25T15:21:59.254Z,2.50
2022-08-25T15:24:27.888Z,2.88
2022-08-25T15:27:01.354Z,2.50
2022-08-25T15:29:31.124Z,2.55
2022-08-25T15:32:00.332Z,2.33
2022-08-25T15:34:27.859Z,2.40
2022-08-25T15:36:56.610Z,2.67
2022-08-25T15:39:23.749Z,2.78
2022-08-25T15:41:53.665Z,2.88
2022-08-25T15:44:22.201Z,2.90
2022-08-25T15:46:51.341Z,3.00
2022-08-25T15:49:20.934Z,2.58
2022-08-25T15:51:52.554Z,2.95
2022-08-25T15:54:20.775Z,2.80
2022-08-25T15:56:47.890Z,2.28
2022-08-25T15:59:15.249Z,2.55
2022-08-25T16:01:44.253Z,2.58
2022-08-25T16:04:12.701Z,2.45
2022-08-25T16:06:39.621Z,2.85
2022-08-25T16:09:07.563Z,2.78
2022-08-25T16:11:35.619Z,3.05
2022-08-25T16:14:12.173Z,2.35
2022-08-25T16:16:41.813Z,2.53
2022-08-25T16:19:08.901Z,2.92
2022-08-25T16:21:37.147Z,3.20
2022-08-25T16:24:12.510Z,2.60
2022-08-25T16:26:47.972Z,2.63
2022-08-25T16:29:16.480Z,3.00
2022-08-25T16:31:44.666Z,2.63
2022-08-25T16:34:12.066Z,2.30
2022-08-25T16:36:40.062Z,2.67
2022-08-25T16:39:09.947Z,2.50
2022-08-25T16:41:37.373Z,2.65
2022-08-25T16:44:11.102Z,2.40
2022-08-25T16:46:40.816Z,2.47
2022-08-25T16:49:10.194Z,2.30
2022-08-25T16:51:38.901Z,2.60
2022-08-25T16:54:26.472Z,2.58
2022-08-25T16:56:55.088Z,2.53
2022-08-25T16:59:23.791Z,2.63
2022-08-25T17:01:51.589Z,2.55
2022-08-25T17:04:19.115Z,2.53
2022-08-25T17:06:51.718Z,2.28
2022-08-25T17:09:23.998Z,2.42
2022-08-25T17:11:54.366Z,2.60
2022-08-25T17:14:22.276Z,2.67
2022-08-25T17:16:51.142Z,2.95
2022-08-25T17:19:18.627Z,2.85
2022-08-25T17:21:49.975Z,2.78
2022-08-25T17:24:17.174Z,3.22
2022-08-25T17:26:47.191Z,2.60
2022-08-25T17:29:14.340Z,2.80
2022-08-25T17:31:43.979Z,2.50
2022-08-25T17:34:16.573Z,3.22
2022-08-25T17:36:45.251Z,2.50
2022-08-25T17:39:15.077Z,3.00
2022-08-25T17:41:43.956Z,2.65
2022-08-25T17:44:11.680Z,3.00
2022-08-25T17:46:44.111Z,2.65
2022-08-25T17:49:15.034Z,2.65
2022-08-25T17:51:42.675Z,2.67
2022-08-25T17:54:09.815Z,2.60
2022-08-25T17:56:38.181Z,2.80
2022-08-25T17:59:06.313Z,2.70
2022-08-25T18:01:40.285Z,2.65
2022-08-25T18:04:17.570Z,3.03
2022-08-25T18:06:45.903Z,2.80
2022-08-25T18:09:14.321Z,2.83
2022-08-25T18:11:42.063Z,3.10
2022-08-25T18:14:11.324Z,3.08
2022-08-25T18:16:39.059Z,2.63
2022-08-25T18:19:06.573Z,3.08
2022-08-25T18:21:36.816Z,3.25
2022-08-25T18:24:05.177Z,3.30
2022-08-25T18:26:32.331Z,3.05
2022-08-25T18:28:59.463Z,3.45
2022-08-25T18:31:27.183Z,3.13
2022-08-25T18:33:54.256Z,3.35
2022-08-25T18:36:21.329Z,3.10
2022-08-25T18:39:08.425Z,3.20
2022-08-25T18:41:40.907Z,3.15
2022-08-25T18:44:10.718Z,3.25
2022-08-25T18:46:39.393Z,3.60
2022-08-25T18:49:06.405Z,4.45
2022-08-25T18:51:34.041Z,4.65
2022-08-25T18:54:01.463Z,3.78
2022-08-25T18:56:28.888Z,3.80
2022-08-25T18:58:57.371Z,3.30
2022-08-25T19:01:24.431Z,3.15
2022-08-25T19:03:51.714Z,3.55
2022-08-25T19:06:19.455Z,3.45
2022-08-25T19:08:48.057Z,3.35
2022-08-25T19:11:16.167Z,3.97
2022-08-25T19:13:43.531Z,3.75
2022-08-25T19:16:20.525Z,3.80
2022-08-25T19:18:50.105Z,5.03
2022-08-25T19:21:22.730Z,4.07
2022-08-25T19:23:51.429Z,5.50
2022-08-25T19:26:19.623Z,4.55
2022-08-25T19:28:50.416Z,4.80
2022-08-25T19:31:19.487Z,5.53
2022-08-25T19:33:47.952Z,4.97
2022-08-25T19:36:18.668Z,4.80
2022-08-25T19:38:52.330Z,4.07
2022-08-25T19:41:21.499Z,4.20
2022-08-25T19:43:56.417Z,4.30
2022-08-25T19:46:32.728Z,4.93
2022-08-25T19:49:16.340Z,4.93
2022-08-25T19:51:50.613Z,4.83
2022-08-25T19:54:27.017Z,4.67
2022-08-25T19:56:55.588Z,4.70
2022-08-25T19:59:26.697Z,4.20
2022-08-25T20:02:12.324Z,4.70
2022-08-25T20:04:49.622Z,4.13
2022-08-25T20:07:23.967Z,4.73
2022-08-25T20:09:52.516Z,4.90
2022-08-25T20:12:20.594Z,4.70
2022-08-25T20:14:48.884Z,4.20
2022-08-25T20:17:23.738Z,4.47
2022-08-25T20:19:55.442Z,4.37
2022-08-25T20:22:25.948Z,4.80
2022-08-25T20:24:56.232Z,4.10
2022-08-25T20:27:27.909Z,5.00
2022-08-25T20:29:55.124Z,4.77
2022-08-25T20:32:23.854Z,4.10
2022-08-25T20:34:53.436Z,4.73
2022-08-25T20:37:23.002Z,4.27
2022-08-25T20:39:50.008Z,3.97
2022-08-25T20:42:17.091Z,4.77
2022-08-25T20:44:44.412Z,4.63
2022-08-25T20:47:11.364Z,4.27
2022-08-25T20:49:43.698Z,4.13
2022-08-25T20:52:12.033Z,4.87
2022-08-25T20:54:40.613Z,4.17
2022-08-25T20:57:07.994Z,4.10
2022-08-25T20:59:35.532Z,4.70
2022-08-25T21:02:02.769Z,4.20
2022-08-25T21:04:31.172Z,4.63
2022-08-25T21:07:00.296Z,4.97
2022-08-25T21:09:28.477Z,4.30
2022-08-25T21:11:57.497Z,4.37
2022-08-25T21:14:26.180Z,5.00
2022-08-25T21:16:54.483Z,4.53
2022-08-25T21:19:26.783Z,4.90
2022-08-25T21:21:59.832Z,5.13
2022-08-25T21:24:28.370Z,5.23
2022-08-25T21:26:57.282Z,5.13
2022-08-25T21:29:28.403Z,4.83
2022-08-25T21:31:58.513Z,4.57
2022-08-25T21:34:25.892Z,5.60
2022-08-25T21:36:57.842Z,5.50
2022-08-25T21:39:27.528Z,5.47
2022-08-25T21:41:56.531Z,4.80
2022-08-25T21:44:23.967Z,4.73
2022-08-25T21:46:54.419Z,4.77
2022-08-25T21:49:23.319Z,5.00
2022-08-25T21:51:59.306Z,4.73
2022-08-25T21:54:28.618Z,5.27
2022-08-25T21:57:00.043Z,4.70
2022-08-25T21:59:30.052Z,6.47
2022-08-25T22:02:04.350Z,5.40
2022-08-25T22:04:32.229Z,5.23
2022-08-25T22:07:00.284Z,5.20
2022-08-25T22:09:28.360Z,5.20
2022-08-25T22:11:56.653Z,4.97
2022-08-25T22:14:26.188Z,5.17
2022-08-25T22:16:54.380Z,5.00
2022-08-25T22:19:22.754Z,4.70
2022-08-25T22:21:51.197Z,6.20
2022-08-25T22:24:19.128Z,5.60
2022-08-25T22:26:48.505Z,5.73
2022-08-25T22:29:25.338Z,6.23
2022-08-25T22:31:58.618Z,5.93
2022-08-25T22:34:30.356Z,5.87
2022-08-25T22:37:03.573Z,5.70
2022-08-25T22:39:32.266Z,5.67
2022-08-25T22:42:01.738Z,5.57
2022-08-25T22:44:28.741Z,5.67
2022-08-25T22:46:55.877Z,5.17
2022-08-25T22:49:23.674Z,5.13
2022-08-25T22:51:50.802Z,5.77
2022-08-25T22:54:18.173Z,6.10
2022-08-25T22:56:45.768Z,6.10
2022-08-25T22:59:14.113Z,5.20
2022-08-25T23:01:44.500Z,5.40
2022-08-25T23:04:12.344Z,6.30
2022-08-25T23:06:39.763Z,5.37
2022-08-25T23:09:08.804Z,5.63
2022-08-25T23:11:38.605Z,6.00
2022-08-25T23:14:10.060Z,4.80
2022-08-25T23:16:38.906Z,6.13
2022-08-25T23:19:06.150Z,5.77
2022-08-25T23:21:53.042Z,5.67
2022-08-25T23:24:27.496Z,5.40
2022-08-25T23:27:02.090Z,5.13
2022-08-25T23:29:30.173Z,5.40
2022-08-25T23:31:58.467Z,5.00
2022-08-25T23:34:26.312Z,5.80
2022-08-25T23:36:53.860Z,5.60
2022-08-25T23:39:21.937Z,5.80
2022-08-25T23:41:50.005Z,5.50
2022-08-25T23:44:18.905Z,4.93
2022-08-25T23:46:47.601Z,5.60
2022-08-25T23:49:18.129Z,6.00
2022-08-25T23:51:48.597Z,5.10
2022-08-25T23:54:16.937Z,5.20
2022-08-25T23:56:51.835Z,5.10
2022-08-25T23:59:24.629Z,5.30
